createdAt,value
2023-03-26T00:00:54.010Z,91.55
2023-03-26T00:03:20.442Z,91.78
2023-03-26T00:05:48.139Z,91.71
2023-03-26T00:08:16.905Z,91.71
2023-03-26T00:10:44.129Z,91.64
2023-03-26T00:13:10.886Z,91.57
2023-03-26T00:15:37.672Z,91.81
2023-03-26T00:18:04.170Z,91.92
2023-03-26T00:20:32.746Z,91.56
2023-03-26T00:23:01.490Z,91.53
2023-03-26T00:25:28.382Z,91.50
2023-03-26T00:27:54.743Z,91.48
2023-03-26T00:30:21.364Z,91.48
2023-03-26T00:32:53.354Z,91.37
2023-03-26T00:35:20.705Z,91.81
2023-03-26T00:37:47.070Z,91.69
2023-03-26T00:40:13.645Z,91.91
2023-03-26T00:42:39.982Z,91.65
2023-03-26T00:45:07.367Z,91.63
2023-03-26T00:47:34.518Z,91.63
2023-03-26T00:50:01.426Z,91.70
2023-03-26T00:52:28.664Z,91.37
2023-03-26T00:54:55.801Z,91.61
2023-03-26T00:57:34.645Z,91.58
2023-03-26T01:00:15.780Z,91.94
2023-03-26T01:02:45.080Z,91.84
2023-03-26T01:05:36.266Z,91.88
2023-03-26T01:08:15.110Z,91.98
2023-03-26T01:10:43.446Z,92.00
2023-03-26T01:13:10.011Z,92.12
2023-03-26T01:15:37.340Z,92.24
2023-03-26T01:18:09.770Z,92.26
2023-03-26T01:20:46.520Z,92.37
2023-03-26T01:23:20.253Z,92.43
2023-03-26T01:25:57.759Z,92.63
2023-03-26T01:28:30.671Z,92.65
2023-03-26T01:31:09.976Z,92.68
2023-03-26T01:33:46.802Z,92.70
2023-03-26T01:36:29.097Z,92.49
2023-03-26T01:39:07.942Z,92.56
2023-03-26T01:41:47.208Z,92.73
2023-03-26T01:44:28.807Z,92.86
2023-03-26T01:46:55.606Z,92.81
2023-03-26T01:49:22.052Z,92.89
2023-03-26T01:51:48.687Z,92.87
2023-03-26T01:54:19.604Z,92.87
2023-03-26T01:57:07.467Z,92.90
2023-03-26T01:59:48.303Z,92.80
2023-03-26T02:02:33.084Z,93.02
2023-03-26T02:05:17.392Z,93.07
2023-03-26T02:07:55.888Z,93.28
2023-03-26T02:10:30.770Z,92.90
2023-03-26T02:12:58.873Z,93.02
2023-03-26T02:15:25.492Z,92.83
2023-03-26T02:17:52.869Z,92.86
2023-03-26T02:20:20.483Z,92.81
2023-03-26T02:22:48.205Z,92.92
2023-03-26T02:25:17.664Z,92.90
2023-03-26T02:27:45.139Z,92.90
2023-03-26T02:30:15.674Z,93.17
2023-03-26T02:32:43.750Z,93.08
2023-03-26T02:35:11.896Z,93.06
2023-03-26T02:37:39.059Z,93.13
2023-03-26T02:40:11.016Z,93.05
2023-03-26T02:42:38.309Z,93.09
2023-03-26T02:45:06.682Z,93.23
2023-03-26T02:47:33.831Z,93.30
2023-03-26T02:50:01.337Z,93.44
2023-03-26T02:52:27.668Z,93.44
2023-03-26T02:54:54.115Z,93.44
2023-03-26T02:57:20.839Z,93.51
2023-03-26T02:59:47.176Z,93.75
2023-03-26T03:02:14.557Z,93.79
2023-03-26T03:04:41.010Z,93.95
2023-03-26T03:07:07.645Z,94.17
2023-03-26T03:09:34.659Z,94.14
2023-03-26T03:12:01.015Z,94.18
2023-03-26T03:14:27.323Z,94.21
2023-03-26T03:16:53.834Z,94.28
2023-03-26T03:19:20.530Z,94.41
2023-03-26T03:21:46.842Z,94.27
2023-03-26T03:24:13.861Z,94.23
2023-03-26T03:26:42.171Z,94.28
2023-03-26T03:29:09.238Z,94.27
2023-03-26T03:31:35.842Z,94.18
2023-03-26T03:34:02.192Z,94.33
2023-03-26T03:36:30.268Z,94.23
2023-03-26T03:39:02.138Z,94.17
2023-03-26T03:41:29.333Z,94.21
2023-03-26T03:43:55.715Z,94.00
2023-03-26T03:46:22.080Z,93.93
2023-03-26T03:48:49.736Z,93.91
2023-03-26T03:51:18.077Z,94.12
2023-03-26T03:53:45.935Z,93.90
2023-03-26T03:56:14.447Z,93.89
2023-03-26T03:58:41.585Z,93.88
2023-03-26T04:01:07.983Z,93.76
2023-03-26T04:03:38.521Z,93.82
2023-03-26T04:06:06.846Z,93.78
2023-03-26T04:08:34.903Z,93.74
2023-03-26T04:11:02.258Z,93.89
2023-03-26T04:13:28.670Z,93.67
2023-03-26T04:15:56.073Z,93.73
2023-03-26T04:18:23.250Z,93.60
2023-03-26T04:20:49.752Z,93.44
2023-03-26T04:23:18.307Z,93.46
2023-03-26T04:25:49.179Z,93.42
2023-03-26T04:28:42.242Z,93.41
2023-03-26T04:31:13.738Z,93.41
2023-03-26T04:33:40.190Z,93.46
2023-03-26T04:36:07.242Z,93.32
2023-03-26T04:38:41.127Z,93.44
2023-03-26T04:41:07.775Z,93.44
2023-03-26T04:43:42.156Z,93.21
2023-03-26T04:46:10.419Z,93.29
2023-03-26T04:48:38.618Z,93.28
2023-03-26T04:51:09.797Z,93.25
2023-03-26T04:53:36.636Z,93.27
2023-03-26T04:56:11.991Z,93.32
2023-03-26T04:58:39.774Z,93.40
2023-03-26T05:01:10.176Z,93.38
2023-03-26T05:03:40.654Z,93.51
2023-03-26T05:06:07.401Z,93.57
2023-03-26T05:08:33.753Z,93.54
2023-03-26T05:11:00.234Z,93.51
2023-03-26T05:13:26.560Z,93.62
2023-03-26T05:15:52.925Z,93.46
2023-03-26T05:18:19.315Z,93.58
2023-03-26T05:20:46.390Z,93.62
2023-03-26T05:23:12.846Z,93.46
2023-03-26T05:25:39.221Z,93.44
2023-03-26T05:28:05.677Z,93.66
2023-03-26T05:30:32.159Z,93.49
2023-03-26T05:32:58.580Z,93.53
2023-03-26T05:35:25.027Z,93.41
2023-03-26T05:37:51.474Z,93.49
2023-03-26T05:40:17.988Z,93.43
2023-03-26T05:42:45.287Z,93.47
2023-03-26T05:45:13.777Z,93.53
2023-03-26T05:47:40.292Z,93.47
2023-03-26T05:50:08.214Z,93.50
2023-03-26T05:52:34.636Z,93.44
2023-03-26T05:55:01.084Z,93.45
2023-03-26T05:57:30.257Z,93.58
2023-03-26T05:59:56.596Z,93.67
2023-03-26T06:02:23.680Z,93.59
2023-03-26T06:04:50.783Z,93.55
2023-03-26T06:07:18.073Z,93.67
2023-03-26T06:09:45.066Z,93.69
2023-03-26T06:12:11.800Z,93.51
2023-03-26T06:14:38.221Z,93.47
2023-03-26T06:17:04.601Z,93.51
2023-03-26T06:19:30.915Z,93.40
2023-03-26T06:21:57.317Z,93.42
2023-03-26T06:24:23.736Z,93.26
2023-03-26T06:26:50.100Z,93.48
2023-03-26T06:29:16.506Z,93.31
2023-03-26T06:31:42.910Z,93.34
2023-03-26T06:34:09.306Z,93.22
2023-03-26T06:36:35.723Z,93.17
2023-03-26T06:39:02.214Z,93.31
2023-03-26T06:41:35.132Z,93.24
2023-03-26T06:44:01.518Z,93.23
2023-03-26T06:46:27.997Z,92.90
2023-03-26T06:48:54.382Z,93.01
2023-03-26T06:51:20.888Z,92.85
2023-03-26T06:53:47.292Z,92.65
2023-03-26T06:56:13.606Z,92.66
2023-03-26T06:58:39.934Z,92.64
2023-03-26T07:01:06.598Z,92.59
2023-03-26T07:03:33.031Z,92.53
2023-03-26T07:05:59.403Z,92.43
2023-03-26T07:08:26.536Z,92.45
2023-03-26T07:10:53.194Z,92.60
2023-03-26T07:13:19.784Z,92.42
2023-03-26T07:15:48.831Z,92.37
2023-03-26T07:18:15.524Z,92.30
2023-03-26T07:20:43.557Z,92.34
2023-03-26T07:23:11.581Z,92.09
2023-03-26T07:25:38.398Z,92.16
2023-03-26T07:28:24.386Z,92.13
2023-03-26T07:30:53.664Z,92.17
2023-03-26T07:33:45.514Z,92.22
2023-03-26T07:36:32.647Z,92.17
2023-03-26T07:39:11.017Z,92.04
2023-03-26T07:41:43.866Z,91.75
2023-03-26T07:44:22.437Z,91.92
2023-03-26T07:46:49.303Z,91.84
2023-03-26T07:49:17.759Z,91.49
2023-03-26T07:51:44.378Z,91.61
2023-03-26T07:54:11.138Z,91.58
2023-03-26T07:56:48.994Z,91.26
2023-03-26T07:59:26.737Z,91.17
2023-03-26T08:02:13.927Z,91.09
2023-03-26T08:04:40.467Z,90.61
2023-03-26T08:07:34.875Z,90.94
2023-03-26T08:10:04.192Z,91.06
2023-03-26T08:12:46.091Z,90.75
2023-03-26T08:15:29.518Z,90.62
2023-03-26T08:18:19.354Z,90.42
2023-03-26T08:20:49.287Z,90.48
2023-03-26T08:23:27.644Z,90.33
2023-03-26T08:26:19.076Z,90.34
2023-03-26T08:28:50.647Z,90.28
2023-03-26T08:31:19.431Z,90.23
2023-03-26T08:33:45.874Z,90.33
2023-03-26T08:36:12.256Z,90.30
2023-03-26T08:38:38.584Z,90.47
2023-03-26T08:41:24.827Z,90.10
2023-03-26T08:44:06.113Z,90.11
2023-03-26T08:46:38.038Z,90.13
2023-03-26T08:49:42.664Z,90.07
2023-03-26T08:52:49.232Z,90.13
2023-03-26T08:55:43.612Z,90.19
2023-03-26T08:58:43.544Z,90.11
2023-03-26T09:01:12.361Z,90.13
2023-03-26T09:04:12.220Z,90.28
2023-03-26T09:06:50.764Z,90.22
2023-03-26T09:09:29.889Z,90.34
2023-03-26T09:12:18.063Z,90.35
2023-03-26T09:14:53.622Z,90.49
2023-03-26T09:18:03.030Z,90.50
2023-03-26T09:20:38.536Z,90.74
2023-03-26T09:23:07.788Z,90.50
2023-03-26T09:25:56.102Z,90.48
2023-03-26T09:28:44.488Z,90.26
2023-03-26T09:31:32.858Z,90.43
2023-03-26T09:34:29.857Z,90.41
2023-03-26T09:37:24.491Z,90.07
2023-03-26T09:40:15.138Z,90.27
2023-03-26T09:43:00.931Z,90.49
2023-03-26T09:45:52.639Z,90.22
2023-03-26T09:48:48.347Z,90.03
2023-03-26T09:51:40.258Z,89.98
2023-03-26T09:54:44.554Z,89.74
2023-03-26T09:57:36.038Z,89.78
2023-03-26T10:00:23.977Z,89.70
2023-03-26T10:03:08.299Z,89.71
2023-03-26T10:06:11.832Z,89.59
2023-03-26T10:08:41.320Z,89.59
2023-03-26T10:11:18.812Z,89.58
2023-03-26T10:14:03.749Z,88.98
2023-03-26T10:16:42.526Z,88.94
2023-03-26T10:19:29.367Z,88.95
2023-03-26T10:22:09.195Z,89.13
2023-03-26T10:25:10.710Z,89.34
2023-03-26T10:28:07.194Z,89.17
2023-03-26T10:30:54.715Z,89.09
2023-03-26T10:33:46.328Z,88.91
2023-03-26T10:36:33.511Z,88.94
2023-03-26T10:39:37.055Z,89.02
2023-03-26T10:42:43.396Z,89.00
2023-03-26T10:45:25.617Z,88.35
2023-03-26T10:48:19.572Z,88.89
2023-03-26T10:50:51.816Z,88.62
2023-03-26T10:53:51.331Z,88.42
2023-03-26T10:56:30.067Z,88.51
2023-03-26T10:58:56.965Z,88.60
2023-03-26T11:02:01.662Z,88.52
2023-03-26T11:04:54.451Z,88.55
2023-03-26T11:07:43.991Z,88.45
2023-03-26T11:10:48.190Z,88.56
2023-03-26T11:13:42.625Z,88.58
2023-03-26T11:16:20.575Z,88.25
2023-03-26T11:19:05.886Z,87.69
2023-03-26T11:21:58.283Z,87.81
2023-03-26T11:24:54.132Z,87.42
2023-03-26T11:27:47.891Z,87.89
2023-03-26T11:30:48.433Z,87.08
2023-03-26T11:33:25.954Z,87.07
2023-03-26T11:36:06.485Z,86.99
2023-03-26T11:38:45.717Z,86.89
2023-03-26T11:41:22.505Z,86.77
2023-03-26T11:43:55.327Z,86.29
2023-03-26T11:46:23.609Z,86.26
2023-03-26T11:48:57.450Z,86.01
2023-03-26T11:51:32.843Z,86.09
2023-03-26T11:54:00.493Z,86.12
2023-03-26T11:56:33.991Z,86.29
2023-03-26T11:59:17.877Z,86.00
2023-03-26T12:01:52.535Z,86.21
2023-03-26T12:04:33.766Z,86.28
2023-03-26T12:07:13.885Z,86.11
2023-03-26T12:09:55.793Z,86.00
2023-03-26T12:12:26.589Z,86.36
2023-03-26T12:14:53.452Z,86.14
2023-03-26T12:17:34.690Z,86.43
2023-03-26T12:20:02.410Z,86.76
2023-03-26T12:22:43.394Z,86.90
2023-03-26T12:25:25.111Z,86.40
2023-03-26T12:28:05.501Z,86.35
2023-03-26T12:30:37.778Z,86.10
2023-03-26T12:33:05.365Z,85.47
2023-03-26T12:35:35.116Z,85.13
2023-03-26T12:38:22.154Z,84.33
2023-03-26T12:40:49.634Z,83.90
2023-03-26T12:44:54.770Z,83.19
2023-03-26T12:47:56.512Z,82.97
2023-03-26T12:49:18.775Z,81.33
2023-03-26T12:51:58.525Z,80.64
2023-03-26T12:54:36.024Z,81.15
2023-03-26T12:57:18.644Z,80.23
2023-03-26T12:59:45.061Z,79.54
2023-03-26T13:02:39.424Z,80.07
2023-03-26T13:05:23.688Z,79.05
2023-03-26T13:08:12.482Z,78.38
2023-03-26T13:10:57.775Z,77.07
2023-03-26T13:13:58.897Z,77.89
2023-03-26T13:16:53.135Z,78.42
2023-03-26T13:19:37.445Z,75.80
2023-03-26T13:22:25.470Z,76.24
2023-03-26T13:25:30.147Z,75.54
2023-03-26T13:28:10.763Z,74.75
2023-03-26T13:30:44.620Z,74.81
2023-03-26T13:33:38.186Z,72.13
2023-03-26T13:36:24.250Z,73.88
2023-03-26T13:39:24.559Z,73.46
2023-03-26T13:42:16.157Z,74.08
2023-03-26T13:44:52.753Z,73.49
2023-03-26T13:47:36.402Z,73.20
2023-03-26T13:50:30.296Z,72.43
2023-03-26T13:53:06.391Z,71.63
2023-03-26T13:55:47.443Z,71.24
2023-03-26T13:58:17.547Z,71.82
2023-03-26T14:01:07.805Z,70.93
2023-03-26T14:03:49.362Z,70.25
2023-03-26T14:06:33.883Z,70.84
2023-03-26T14:09:11.447Z,71.20
2023-03-26T14:11:51.871Z,69.94
2023-03-26T14:14:37.475Z,71.50
2023-03-26T14:17:17.985Z,71.36
2023-03-26T14:20:05.149Z,69.41
2023-03-26T14:22:44.329Z,71.22
2023-03-26T14:25:13.667Z,71.14
2023-03-26T14:28:19.281Z,71.35
2023-03-26T14:31:08.023Z,69.27
2023-03-26T14:33:34.665Z,70.28
2023-03-26T14:36:17.315Z,69.34
2023-03-26T14:38:50.139Z,69.02
2023-03-26T14:41:33.558Z,69.11
2023-03-26T14:44:09.140Z,68.16
2023-03-26T14:46:56.999Z,69.44
2023-03-26T14:50:04.743Z,70.20
2023-03-26T14:52:47.737Z,69.45
2023-03-26T14:55:35.351Z,69.40
2023-03-26T14:58:29.560Z,68.58
2023-03-26T15:01:08.031Z,68.64
2023-03-26T15:03:58.665Z,69.08
2023-03-26T15:06:45.190Z,68.56
2023-03-26T15:09:29.582Z,68.56
2023-03-26T15:12:13.650Z,69.08
2023-03-26T15:15:26.218Z,68.53
2023-03-26T15:18:11.667Z,68.68
2023-03-26T15:21:19.599Z,69.24
2023-03-26T15:24:07.944Z,67.74
2023-03-26T15:26:46.570Z,69.26
2023-03-26T15:29:42.206Z,68.09
2023-03-26T15:32:40.893Z,68.43
2023-03-26T15:35:16.851Z,68.40
2023-03-26T15:38:11.153Z,67.67
2023-03-26T15:40:50.801Z,67.51
2023-03-26T15:43:21.303Z,67.11
2023-03-26T15:46:24.468Z,67.55
2023-03-26T15:48:57.660Z,64.87
2023-03-26T15:51:47.417Z,65.66
2023-03-26T15:54:29.421Z,66.25
2023-03-26T15:57:08.900Z,66.24
2023-03-26T15:59:59.221Z,66.59
2023-03-26T16:02:50.225Z,66.64
2023-03-26T16:05:22.715Z,66.56
2023-03-26T16:08:04.696Z,65.61
2023-03-26T16:10:55.981Z,64.85
2023-03-26T16:13:22.645Z,66.29
2023-03-26T16:16:09.258Z,64.47
2023-03-26T16:18:43.874Z,64.31
2023-03-26T16:21:30.416Z,65.42
2023-03-26T16:24:07.401Z,65.30
2023-03-26T16:26:54.799Z,65.17
2023-03-26T16:29:22.613Z,65.32
2023-03-26T16:32:17.356Z,65.64
2023-03-26T16:35:12.829Z,66.04
2023-03-26T16:37:50.495Z,66.18
2023-03-26T16:40:17.068Z,64.67
2023-03-26T16:43:01.998Z,66.34
2023-03-26T16:45:37.825Z,65.63
2023-03-26T16:48:23.153Z,65.16
2023-03-26T16:51:18.566Z,64.96
2023-03-26T16:53:45.905Z,64.36
2023-03-26T16:56:16.710Z,63.12
2023-03-26T16:58:48.967Z,64.58
2023-03-26T17:01:42.976Z,64.86
2023-03-26T17:04:23.516Z,63.63
2023-03-26T17:07:13.966Z,64.12
2023-03-26T17:09:59.054Z,63.34
2023-03-26T17:12:47.799Z,63.73
2023-03-26T17:15:47.047Z,64.27
2023-03-26T17:18:27.512Z,64.84
2023-03-26T17:21:12.442Z,64.11
2023-03-26T17:24:04.079Z,63.09
2023-03-26T17:27:01.186Z,63.49
2023-03-26T17:29:51.974Z,62.94
2023-03-26T17:32:21.420Z,62.45
2023-03-26T17:34:50.896Z,62.47
2023-03-26T17:37:17.212Z,62.73
2023-03-26T17:39:43.590Z,61.45
2023-03-26T17:42:15.958Z,62.67
2023-03-26T17:44:51.927Z,63.46
2023-03-26T17:47:26.630Z,64.55
2023-03-26T17:50:04.244Z,63.91
2023-03-26T17:52:48.101Z,64.34
2023-03-26T17:55:19.815Z,64.28
2023-03-26T17:57:52.295Z,64.57
2023-03-26T18:00:26.587Z,63.31
2023-03-26T18:02:57.170Z,62.76
2023-03-26T18:05:28.032Z,63.18
2023-03-26T18:08:01.910Z,61.65
2023-03-26T18:11:02.937Z,62.47
2023-03-26T18:14:06.086Z,63.07
2023-03-26T18:16:45.910Z,63.70
2023-03-26T18:19:21.835Z,63.63
2023-03-26T18:21:59.571Z,63.62
2023-03-26T18:24:37.534Z,64.17
2023-03-26T18:27:22.148Z,64.30
2023-03-26T18:29:57.515Z,63.06
2023-03-26T18:32:33.480Z,62.79
2023-03-26T18:35:13.305Z,62.68
2023-03-26T18:37:40.291Z,63.72
2023-03-26T18:40:16.457Z,63.12
2023-03-26T18:42:52.356Z,64.57
2023-03-26T18:45:27.125Z,63.47
2023-03-26T18:47:56.694Z,64.35
2023-03-26T18:50:27.715Z,64.65
2023-03-26T18:52:57.989Z,64.83
2023-03-26T18:55:27.227Z,64.98
2023-03-26T18:57:53.534Z,65.59
2023-03-26T19:00:25.532Z,65.50
2023-03-26T19:03:03.542Z,64.62
2023-03-26T19:05:32.311Z,64.89
2023-03-26T19:08:03.434Z,64.96
2023-03-26T19:10:32.046Z,65.98
2023-03-26T19:13:01.419Z,66.33
2023-03-26T19:15:31.522Z,66.37
2023-03-26T19:18:07.067Z,66.99
2023-03-26T19:20:40.453Z,67.52
2023-03-26T19:23:09.659Z,67.88
2023-03-26T19:25:42.876Z,67.77
2023-03-26T19:28:17.852Z,68.40
2023-03-26T19:30:44.484Z,68.44
2023-03-26T19:33:18.882Z,68.60
2023-03-26T19:35:51.553Z,68.91
2023-03-26T19:38:29.323Z,69.19
2023-03-26T19:40:57.602Z,69.15
2023-03-26T19:43:25.630Z,69.61
2023-03-26T19:46:00.236Z,68.91
2023-03-26T19:48:45.315Z,68.60
2023-03-26T19:51:19.929Z,68.68
2023-03-26T19:53:53.962Z,68.11
2023-03-26T19:56:21.867Z,68.22
2023-03-26T19:58:49.878Z,68.05
2023-03-26T20:01:23.645Z,68.47
2023-03-26T20:03:59.901Z,68.32
2023-03-26T20:06:42.652Z,68.44
2023-03-26T20:09:11.582Z,68.50
2023-03-26T20:11:39.292Z,68.69
2023-03-26T20:14:14.736Z,68.45
2023-03-26T20:16:42.954Z,68.95
2023-03-26T20:19:10.971Z,68.60
2023-03-26T20:21:41.046Z,68.31
2023-03-26T20:24:14.520Z,68.65
2023-03-26T20:26:40.955Z,68.17
2023-03-26T20:29:07.458Z,68.71
2023-03-26T20:31:34.145Z,68.58
2023-03-26T20:34:00.584Z,69.13
2023-03-26T20:36:32.685Z,68.70
2023-03-26T20:38:59.250Z,68.89
2023-03-26T20:41:26.111Z,69.28
2023-03-26T20:43:52.723Z,69.15
2023-03-26T20:46:24.119Z,69.13
2023-03-26T20:48:57.851Z,68.45
2023-03-26T20:51:24.414Z,68.02
2023-03-26T20:53:50.755Z,69.06
2023-03-26T20:56:19.310Z,69.36
2023-03-26T20:58:50.852Z,69.51
2023-03-26T21:01:24.132Z,69.89
2023-03-26T21:03:50.821Z,70.47
2023-03-26T21:06:17.118Z,70.34
2023-03-26T21:08:44.788Z,70.11
2023-03-26T21:11:26.533Z,70.23
2023-03-26T21:14:01.179Z,70.29
2023-03-26T21:16:27.980Z,70.53
2023-03-26T21:18:54.705Z,71.31
2023-03-26T21:21:52.727Z,71.34
2023-03-26T21:24:32.963Z,72.02
2023-03-26T21:27:28.094Z,72.22
2023-03-26T21:29:55.551Z,72.17
2023-03-26T21:32:22.718Z,72.65
2023-03-26T21:34:58.838Z,72.74
2023-03-26T21:37:26.349Z,72.74
2023-03-26T21:39:52.946Z,73.06
2023-03-26T21:42:19.609Z,73.28
2023-03-26T21:44:46.738Z,73.26
2023-03-26T21:47:13.576Z,73.48
2023-03-26T21:49:40.148Z,73.41
2023-03-26T21:52:06.883Z,73.61
2023-03-26T21:54:33.671Z,73.65
2023-03-26T21:57:06.715Z,73.65
2023-03-26T22:00:00.672Z,73.82
2023-03-26T22:02:52.140Z,73.49
2023-03-26T22:05:31.154Z,73.33
2023-03-26T22:08:01.622Z,73.32
2023-03-26T22:10:28.635Z,73.70
2023-03-26T22:12:55.089Z,73.74
2023-03-26T22:15:21.692Z,73.37
2023-03-26T22:17:54.174Z,73.41
2023-03-26T22:20:25.438Z,73.06
2023-03-26T22:22:53.204Z,73.30
2023-03-26T22:25:21.777Z,72.88
2023-03-26T22:27:50.036Z,72.66
2023-03-26T22:30:17.039Z,72.79
2023-03-26T22:32:44.584Z,72.57
2023-03-26T22:35:11.390Z,73.21
2023-03-26T22:37:37.755Z,73.66
2023-03-26T22:40:09.019Z,73.89
2023-03-26T22:42:36.256Z,74.48
2023-03-26T22:45:03.988Z,74.42
2023-03-26T22:47:30.605Z,74.72
2023-03-26T22:49:57.198Z,74.67
2023-03-26T22:52:23.666Z,74.89
2023-03-26T22:54:50.014Z,74.86
2023-03-26T22:57:16.419Z,74.98
2023-03-26T22:59:42.964Z,75.27
2023-03-26T23:02:11.115Z,75.30
2023-03-26T23:04:37.688Z,75.58
2023-03-26T23:07:05.258Z,75.72
2023-03-26T23:09:31.668Z,76.04
2023-03-26T23:11:58.258Z,76.46
2023-03-26T23:14:24.713Z,77.02
2023-03-26T23:16:51.683Z,77.38
2023-03-26T23:19:18.122Z,77.54
2023-03-26T23:21:44.445Z,78.10
2023-03-26T23:24:10.783Z,78.62
2023-03-26T23:26:49.725Z,78.77
2023-03-26T23:29:17.374Z,78.73
2023-03-26T23:31:43.831Z,78.87
2023-03-26T23:34:10.855Z,79.03
2023-03-26T23:36:37.160Z,78.91
2023-03-26T23:39:04.748Z,79.34
2023-03-26T23:41:31.289Z,79.55
2023-03-26T23:43:57.624Z,79.90
2023-03-26T23:46:30.086Z,80.22
2023-03-26T23:49:01.991Z,80.39
2023-03-26T23:51:30.064Z,80.36
2023-03-26T23:53:56.896Z,80.27
2023-03-26T23:56:23.642Z,80.08
2023-03-26T23:58:50.177Z,80.09
